sensor_id;sensor_type;location;lat;lon;timestamp;temperature;humidity
69006;SHT31;56061;51.748;19.620;2022-10-31T00:01:30;8.22;86.67
69006;SHT31;56061;51.748;19.620;2022-10-31T00:04:03;8.24;86.64
69006;SHT31;56061;51.748;19.620;2022-10-31T00:06:30;8.23;86.53
69006;SHT31;56061;51.748;19.620;2022-10-31T00:09:00;8.23;86.54
69006;SHT31;56061;51.748;19.620;2022-10-31T00:11:29;8.20;86.52
69006;SHT31;56061;51.748;19.620;2022-10-31T00:13:57;8.18;86.41
69006;SHT31;56061;51.748;19.620;2022-10-31T00:16:25;8.12;86.38
69006;SHT31;56061;51.748;19.620;2022-10-31T00:19:00;8.07;86.41
69006;SHT31;56061;51.748;19.620;2022-10-31T00:21:30;8.03;86.39
69006;SHT31;56061;51.748;19.620;2022-10-31T00:23:58;8.00;86.46
69006;SHT31;56061;51.748;19.620;2022-10-31T00:26:29;7.98;86.62
69006;SHT31;56061;51.748;19.620;2022-10-31T00:28:57;7.98;86.69
69006;SHT31;56061;51.748;19.620;2022-10-31T00:31:27;8.00;86.70
69006;SHT31;56061;51.748;19.620;2022-10-31T00:33:54;8.04;86.79
69006;SHT31;56061;51.748;19.620;2022-10-31T00:36:21;8.07;86.73
69006;SHT31;56061;51.748;19.620;2022-10-31T00:38:47;8.09;86.56
69006;SHT31;56061;51.748;19.620;2022-10-31T00:41:15;8.07;86.39
69006;SHT31;56061;51.748;19.620;2022-10-31T00:43:43;8.05;86.12
69006;SHT31;56061;51.748;19.620;2022-10-31T00:46:10;8.00;85.94
69006;SHT31;56061;51.748;19.620;2022-10-31T00:48:38;7.95;86.00
69006;SHT31;56061;51.748;19.620;2022-10-31T00:51:05;7.90;86.00
69006;SHT31;56061;51.748;19.620;2022-10-31T00:53:32;7.85;86.02
69006;SHT31;56061;51.748;19.620;2022-10-31T00:55:59;7.80;86.04
69006;SHT31;56061;51.748;19.620;2022-10-31T00:58:25;7.78;86.08
69006;SHT31;56061;51.748;19.620;2022-10-31T01:00:52;7.76;86.08
69006;SHT31;56061;51.748;19.620;2022-10-31T01:03:23;7.76;86.01
69006;SHT31;56061;51.748;19.620;2022-10-31T01:05:56;7.75;86.09
69006;SHT31;56061;51.748;19.620;2022-10-31T01:08:25;7.74;86.20
69006;SHT31;56061;51.748;19.620;2022-10-31T01:11:02;7.70;86.18
69006;SHT31;56061;51.748;19.620;2022-10-31T01:13:34;7.68;86.24
69006;SHT31;56061;51.748;19.620;2022-10-31T01:16:01;7.66;86.32
69006;SHT31;56061;51.748;19.620;2022-10-31T01:18:30;7.65;86.47
69006;SHT31;56061;51.748;19.620;2022-10-31T01:20:58;7.64;86.60
69006;SHT31;56061;51.748;19.620;2022-10-31T01:23:30;7.65;86.66
69006;SHT31;56061;51.748;19.620;2022-10-31T01:26:20;7.66;86.61
69006;SHT31;56061;51.748;19.620;2022-10-31T01:28:51;7.67;86.57
69006;SHT31;56061;51.748;19.620;2022-10-31T01:31:21;7.69;86.69
69006;SHT31;56061;51.748;19.620;2022-10-31T01:33:52;7.70;86.77
69006;SHT31;56061;51.748;19.620;2022-10-31T01:39:01;7.71;86.80
69006;SHT31;56061;51.748;19.620;2022-10-31T01:41:36;7.71;86.72
69006;SHT31;56061;51.748;19.620;2022-10-31T01:46:44;7.72;86.69
69006;SHT31;56061;51.748;19.620;2022-10-31T01:49:22;7.73;86.48
69006;SHT31;56061;51.748;19.620;2022-10-31T01:52:01;7.73;86.45
69006;SHT31;56061;51.748;19.620;2022-10-31T01:54:41;7.74;86.38
69006;SHT31;56061;51.748;19.620;2022-10-31T01:57:14;7.73;86.33
69006;SHT31;56061;51.748;19.620;2022-10-31T01:59:51;7.73;86.48
69006;SHT31;56061;51.748;19.620;2022-10-31T02:02:27;7.72;86.56
69006;SHT31;56061;51.748;19.620;2022-10-31T02:04:56;7.71;86.82
69006;SHT31;56061;51.748;19.620;2022-10-31T02:07:31;7.71;87.14
69006;SHT31;56061;51.748;19.620;2022-10-31T02:10:06;7.70;87.47
69006;SHT31;56061;51.748;19.620;2022-10-31T02:12:33;7.70;87.57
69006;SHT31;56061;51.748;19.620;2022-10-31T02:15:03;7.69;87.63
69006;SHT31;56061;51.748;19.620;2022-10-31T02:17:31;7.69;87.64
69006;SHT31;56061;51.748;19.620;2022-10-31T02:20:20;7.70;87.70
69006;SHT31;56061;51.748;19.620;2022-10-31T02:26:17;7.73;87.71
69006;SHT31;56061;51.748;19.620;2022-10-31T02:34:45;7.73;88.37
69006;SHT31;56061;51.748;19.620;2022-10-31T02:40:27;7.79;88.43
69006;SHT31;56061;51.748;19.620;2022-10-31T02:43:05;7.83;88.48
69006;SHT31;56061;51.748;19.620;2022-10-31T02:45:50;7.86;88.60
69006;SHT31;56061;51.748;19.620;2022-10-31T02:48:28;7.91;88.51
69006;SHT31;56061;51.748;19.620;2022-10-31T02:51:00;7.93;88.51
69006;SHT31;56061;51.748;19.620;2022-10-31T02:53:33;7.97;88.59
69006;SHT31;56061;51.748;19.620;2022-10-31T02:56:04;7.98;88.50
69006;SHT31;56061;51.748;19.620;2022-10-31T02:58:41;8.00;88.66
69006;SHT31;56061;51.748;19.620;2022-10-31T03:09:53;8.04;88.85
69006;SHT31;56061;51.748;19.620;2022-10-31T03:15:46;8.03;88.78
69006;SHT31;56061;51.748;19.620;2022-10-31T03:18:25;8.03;88.79
69006;SHT31;56061;51.748;19.620;2022-10-31T03:20:59;8.02;88.80
69006;SHT31;56061;51.748;19.620;2022-10-31T03:23:33;8.02;88.80
69006;SHT31;56061;51.748;19.620;2022-10-31T03:26:04;7.99;88.81
69006;SHT31;56061;51.748;19.620;2022-10-31T03:28:37;7.97;88.86
69006;SHT31;56061;51.748;19.620;2022-10-31T03:31:19;7.95;88.94
69006;SHT31;56061;51.748;19.620;2022-10-31T03:33:52;7.96;88.98
69006;SHT31;56061;51.748;19.620;2022-10-31T03:36:24;7.97;88.97
69006;SHT31;56061;51.748;19.620;2022-10-31T03:38:54;7.96;89.06
69006;SHT31;56061;51.748;19.620;2022-10-31T03:41:24;7.98;89.10
69006;SHT31;56061;51.748;19.620;2022-10-31T03:43:59;8.00;89.11
69006;SHT31;56061;51.748;19.620;2022-10-31T03:46:34;8.01;89.09
69006;SHT31;56061;51.748;19.620;2022-10-31T03:49:00;8.02;89.13
69006;SHT31;56061;51.748;19.620;2022-10-31T03:54:49;8.01;89.28
69006;SHT31;56061;51.748;19.620;2022-10-31T03:57:43;8.01;89.29
69006;SHT31;56061;51.748;19.620;2022-10-31T04:00:19;8.00;89.30
69006;SHT31;56061;51.748;19.620;2022-10-31T04:02:51;8.01;89.32
69006;SHT31;56061;51.748;19.620;2022-10-31T04:05:27;8.02;89.43
69006;SHT31;56061;51.748;19.620;2022-10-31T04:07:57;8.05;89.45
69006;SHT31;56061;51.748;19.620;2022-10-31T04:10:27;8.07;89.45
69006;SHT31;56061;51.748;19.620;2022-10-31T04:13:01;8.10;89.39
69006;SHT31;56061;51.748;19.620;2022-10-31T04:15:36;8.13;89.37
69006;SHT31;56061;51.748;19.620;2022-10-31T04:18:05;8.17;89.36
69006;SHT31;56061;51.748;19.620;2022-10-31T04:20:35;8.18;89.34
69006;SHT31;56061;51.748;19.620;2022-10-31T04:23:05;8.19;89.44
69006;SHT31;56061;51.748;19.620;2022-10-31T04:25:45;8.19;89.50
69006;SHT31;56061;51.748;19.620;2022-10-31T04:28:11;8.20;89.57
69006;SHT31;56061;51.748;19.620;2022-10-31T04:30:38;8.22;89.52
69006;SHT31;56061;51.748;19.620;2022-10-31T04:33:04;8.24;89.58
69006;SHT31;56061;51.748;19.620;2022-10-31T04:35:30;8.27;89.61
69006;SHT31;56061;51.748;19.620;2022-10-31T04:37:58;8.31;89.64
69006;SHT31;56061;51.748;19.620;2022-10-31T04:40:24;8.35;89.63
69006;SHT31;56061;51.748;19.620;2022-10-31T04:42:51;8.39;89.66
69006;SHT31;56061;51.748;19.620;2022-10-31T04:45:17;8.39;89.61
69006;SHT31;56061;51.748;19.620;2022-10-31T04:47:46;8.40;89.61
69006;SHT31;56061;51.748;19.620;2022-10-31T04:50:13;8.37;89.60
69006;SHT31;56061;51.748;19.620;2022-10-31T04:52:40;8.37;89.60
69006;SHT31;56061;51.748;19.620;2022-10-31T04:55:08;8.38;89.63
69006;SHT31;56061;51.748;19.620;2022-10-31T04:57:46;8.40;89.60
69006;SHT31;56061;51.748;19.620;2022-10-31T05:00:19;8.43;89.69
69006;SHT31;56061;51.748;19.620;2022-10-31T05:02:50;8.46;89.70
69006;SHT31;56061;51.748;19.620;2022-10-31T05:05:23;8.48;89.69
69006;SHT31;56061;51.748;19.620;2022-10-31T05:07:55;8.49;89.65
69006;SHT31;56061;51.748;19.620;2022-10-31T05:10:23;8.48;89.60
69006;SHT31;56061;51.748;19.620;2022-10-31T05:12:54;8.46;89.60
69006;SHT31;56061;51.748;19.620;2022-10-31T05:15:28;8.47;89.60
69006;SHT31;56061;51.748;19.620;2022-10-31T05:17:55;8.49;89.61
69006;SHT31;56061;51.748;19.620;2022-10-31T05:20:24;8.52;89.59
69006;SHT31;56061;51.748;19.620;2022-10-31T05:22:54;8.54;89.56
69006;SHT31;56061;51.748;19.620;2022-10-31T05:25:24;8.58;89.61
69006;SHT31;56061;51.748;19.620;2022-10-31T05:27:53;8.60;89.64
69006;SHT31;56061;51.748;19.620;2022-10-31T05:30:23;8.61;89.60
69006;SHT31;56061;51.748;19.620;2022-10-31T05:32:55;8.61;89.61
69006;SHT31;56061;51.748;19.620;2022-10-31T05:35:24;8.61;89.60
69006;SHT31;56061;51.748;19.620;2022-10-31T05:38:01;8.61;89.67
69006;SHT31;56061;51.748;19.620;2022-10-31T05:40:28;8.64;89.76
69006;SHT31;56061;51.748;19.620;2022-10-31T05:42:56;8.67;89.83
69006;SHT31;56061;51.748;19.620;2022-10-31T05:45:25;8.72;89.82
69006;SHT31;56061;51.748;19.620;2022-10-31T05:47:55;8.75;89.73
69006;SHT31;56061;51.748;19.620;2022-10-31T05:50:26;8.79;89.79
69006;SHT31;56061;51.748;19.620;2022-10-31T05:52:57;8.81;89.74
69006;SHT31;56061;51.748;19.620;2022-10-31T05:55:27;8.82;89.76
69006;SHT31;56061;51.748;19.620;2022-10-31T05:57:55;8.82;89.77
69006;SHT31;56061;51.748;19.620;2022-10-31T06:00:23;8.82;89.79
69006;SHT31;56061;51.748;19.620;2022-10-31T06:03:01;8.85;89.83
69006;SHT31;56061;51.748;19.620;2022-10-31T06:05:34;8.88;89.86
69006;SHT31;56061;51.748;19.620;2022-10-31T06:08:00;8.92;89.87
69006;SHT31;56061;51.748;19.620;2022-10-31T06:10:28;8.95;89.80
69006;SHT31;56061;51.748;19.620;2022-10-31T06:12:54;9.01;89.87
69006;SHT31;56061;51.748;19.620;2022-10-31T06:15:21;9.05;89.89
69006;SHT31;56061;51.748;19.620;2022-10-31T06:17:59;9.09;89.91
69006;SHT31;56061;51.748;19.620;2022-10-31T06:20:29;9.13;90.00
69006;SHT31;56061;51.748;19.620;2022-10-31T06:22:57;9.17;90.07
69006;SHT31;56061;51.748;19.620;2022-10-31T06:25:24;9.23;90.10
69006;SHT31;56061;51.748;19.620;2022-10-31T06:27:51;9.28;90.23
69006;SHT31;56061;51.748;19.620;2022-10-31T06:30:17;9.35;90.19
69006;SHT31;56061;51.748;19.620;2022-10-31T06:32:44;9.42;90.12
69006;SHT31;56061;51.748;19.620;2022-10-31T06:35:11;9.50;90.10
69006;SHT31;56061;51.748;19.620;2022-10-31T06:37:37;9.59;90.18
69006;SHT31;56061;51.748;19.620;2022-10-31T06:40:04;9.67;90.12
69006;SHT31;56061;51.748;19.620;2022-10-31T06:42:31;9.70;89.92
69006;SHT31;56061;51.748;19.620;2022-10-31T06:44:57;9.73;89.80
69006;SHT31;56061;51.748;19.620;2022-10-31T06:47:24;9.75;89.85
69006;SHT31;56061;51.748;19.620;2022-10-31T06:49:50;9.77;89.90
69006;SHT31;56061;51.748;19.620;2022-10-31T06:52:17;9.83;89.94
69006;SHT31;56061;51.748;19.620;2022-10-31T06:54:43;9.89;89.96
69006;SHT31;56061;51.748;19.620;2022-10-31T06:57:09;9.97;89.94
69006;SHT31;56061;51.748;19.620;2022-10-31T06:59:36;10.02;89.84
69006;SHT31;56061;51.748;19.620;2022-10-31T07:02:02;10.08;89.87
69006;SHT31;56061;51.748;19.620;2022-10-31T07:04:29;10.12;89.73
69006;SHT31;56061;51.748;19.620;2022-10-31T07:06:55;10.17;89.81
69006;SHT31;56061;51.748;19.620;2022-10-31T07:09:22;10.20;89.87
69006;SHT31;56061;51.748;19.620;2022-10-31T07:11:51;10.24;89.85
69006;SHT31;56061;51.748;19.620;2022-10-31T07:14:19;10.31;89.97
69006;SHT31;56061;51.748;19.620;2022-10-31T07:16:49;10.41;90.01
69006;SHT31;56061;51.748;19.620;2022-10-31T07:19:16;10.52;89.93
69006;SHT31;56061;51.748;19.620;2022-10-31T07:21:43;10.63;89.91
69006;SHT31;56061;51.748;19.620;2022-10-31T07:24:10;10.73;89.69
69006;SHT31;56061;51.748;19.620;2022-10-31T07:26:36;10.79;89.56
69006;SHT31;56061;51.748;19.620;2022-10-31T07:29:03;10.85;89.44
69006;SHT31;56061;51.748;19.620;2022-10-31T07:31:29;10.88;89.41
69006;SHT31;56061;51.748;19.620;2022-10-31T07:33:56;10.94;89.48
69006;SHT31;56061;51.748;19.620;2022-10-31T07:36:22;10.97;89.33
69006;SHT31;56061;51.748;19.620;2022-10-31T07:38:49;10.98;89.24
69006;SHT31;56061;51.748;19.620;2022-10-31T07:41:15;10.98;89.23
69006;SHT31;56061;51.748;19.620;2022-10-31T07:43:42;11.04;89.38
69006;SHT31;56061;51.748;19.620;2022-10-31T07:46:08;11.11;89.47
69006;SHT31;56061;51.748;19.620;2022-10-31T07:48:35;11.20;89.48
69006;SHT31;56061;51.748;19.620;2022-10-31T07:51:01;11.30;89.44
69006;SHT31;56061;51.748;19.620;2022-10-31T07:53:28;11.37;89.28
69006;SHT31;56061;51.748;19.620;2022-10-31T07:55:55;11.43;89.30
69006;SHT31;56061;51.748;19.620;2022-10-31T07:58:21;11.48;89.12
69006;SHT31;56061;51.748;19.620;2022-10-31T08:00:47;11.55;89.24
69006;SHT31;56061;51.748;19.620;2022-10-31T08:03:15;11.62;89.23
69006;SHT31;56061;51.748;19.620;2022-10-31T08:05:44;11.70;89.20
69006;SHT31;56061;51.748;19.620;2022-10-31T08:08:12;11.80;89.21
69006;SHT31;56061;51.748;19.620;2022-10-31T08:10:40;11.90;89.20
69006;SHT31;56061;51.748;19.620;2022-10-31T08:13:08;12.01;89.12
69006;SHT31;56061;51.748;19.620;2022-10-31T08:15:38;12.13;89.01
69006;SHT31;56061;51.748;19.620;2022-10-31T08:18:13;12.20;88.91
69006;SHT31;56061;51.748;19.620;2022-10-31T08:20:41;12.28;88.89
69006;SHT31;56061;51.748;19.620;2022-10-31T08:23:10;12.35;88.90
69006;SHT31;56061;51.748;19.620;2022-10-31T08:25:38;12.42;88.80
69006;SHT31;56061;51.748;19.620;2022-10-31T08:28:05;12.49;88.69
69006;SHT31;56061;51.748;19.620;2022-10-31T08:30:33;12.57;88.60
69006;SHT31;56061;51.748;19.620;2022-10-31T08:33:03;12.60;88.35
69006;SHT31;56061;51.748;19.620;2022-10-31T08:35:36;12.62;88.26
69006;SHT31;56061;51.748;19.620;2022-10-31T08:38:03;12.68;88.30
69006;SHT31;56061;51.748;19.620;2022-10-31T08:40:31;12.75;88.21
69006;SHT31;56061;51.748;19.620;2022-10-31T08:42:59;12.83;88.30
69006;SHT31;56061;51.748;19.620;2022-10-31T08:45:28;12.92;88.15
69006;SHT31;56061;51.748;19.620;2022-10-31T08:48:00;12.97;88.11
69006;SHT31;56061;51.748;19.620;2022-10-31T08:50:31;13.01;88.10
69006;SHT31;56061;51.748;19.620;2022-10-31T08:53:00;13.07;88.05
69006;SHT31;56061;51.748;19.620;2022-10-31T08:55:32;13.11;87.98
69006;SHT31;56061;51.748;19.620;2022-10-31T08:58:03;13.18;88.04
69006;SHT31;56061;51.748;19.620;2022-10-31T09:00:33;13.24;87.94
69006;SHT31;56061;51.748;19.620;2022-10-31T09:03:02;13.29;87.89
69006;SHT31;56061;51.748;19.620;2022-10-31T09:05:32;13.33;87.76
69006;SHT31;56061;51.748;19.620;2022-10-31T09:08:00;13.36;87.86
69006;SHT31;56061;51.748;19.620;2022-10-31T09:10:29;13.44;87.86
69006;SHT31;56061;51.748;19.620;2022-10-31T09:12:59;13.48;87.73
69006;SHT31;56061;51.748;19.620;2022-10-31T09:15:33;13.53;87.77
69006;SHT31;56061;51.748;19.620;2022-10-31T09:18:02;13.60;87.83
69006;SHT31;56061;51.748;19.620;2022-10-31T09:20:30;13.67;87.64
69006;SHT31;56061;51.748;19.620;2022-10-31T09:23:06;13.73;87.57
69006;SHT31;56061;51.748;19.620;2022-10-31T09:25:37;13.80;87.57
69006;SHT31;56061;51.748;19.620;2022-10-31T09:28:04;13.90;87.54
69006;SHT31;56061;51.748;19.620;2022-10-31T09:30:34;13.96;87.30
69006;SHT31;56061;51.748;19.620;2022-10-31T09:33:05;14.01;87.23
69006;SHT31;56061;51.748;19.620;2022-10-31T09:35:36;14.06;87.23
69006;SHT31;56061;51.748;19.620;2022-10-31T09:38:06;14.09;87.06
69006;SHT31;56061;51.748;19.620;2022-10-31T09:40:39;14.14;87.02
69006;SHT31;56061;51.748;19.620;2022-10-31T09:43:14;14.22;87.01
69006;SHT31;56061;51.748;19.620;2022-10-31T09:52:28;14.48;86.63
69006;SHT31;56061;51.748;19.620;2022-10-31T09:55:05;14.54;86.52
69006;SHT31;56061;51.748;19.620;2022-10-31T09:57:42;14.56;86.22
69006;SHT31;56061;51.748;19.620;2022-10-31T10:00:19;14.53;86.33
69006;SHT31;56061;51.748;19.620;2022-10-31T10:05:36;14.60;86.43
69006;SHT31;56061;51.748;19.620;2022-10-31T10:08:18;14.62;86.35
69006;SHT31;56061;51.748;19.620;2022-10-31T10:14:11;14.85;86.38
69006;SHT31;56061;51.748;19.620;2022-10-31T10:20:26;15.06;86.18
69006;SHT31;56061;51.748;19.620;2022-10-31T10:23:47;15.10;85.95
69006;SHT31;56061;51.748;19.620;2022-10-31T10:26:10;15.11;85.91
69006;SHT31;56061;51.748;19.620;2022-10-31T10:28:49;15.16;85.97
69006;SHT31;56061;51.748;19.620;2022-10-31T10:31:31;15.21;85.76
69006;SHT31;56061;51.748;19.620;2022-10-31T10:34:16;15.25;85.66
69006;SHT31;56061;51.748;19.620;2022-10-31T10:39:43;15.44;85.61
69006;SHT31;56061;51.748;19.620;2022-10-31T10:42:15;15.46;85.50
69006;SHT31;56061;51.748;19.620;2022-10-31T10:45:13;15.47;85.40
69006;SHT31;56061;51.748;19.620;2022-10-31T10:48:05;15.51;85.47
69006;SHT31;56061;51.748;19.620;2022-10-31T10:50:42;15.53;85.51
69006;SHT31;56061;51.748;19.620;2022-10-31T10:59:27;15.74;85.22
69006;SHT31;56061;51.748;19.620;2022-10-31T11:01:55;15.82;85.03
69006;SHT31;56061;51.748;19.620;2022-10-31T11:04:32;15.86;84.96
69006;SHT31;56061;51.748;19.620;2022-10-31T11:07:05;15.87;85.13
69006;SHT31;56061;51.748;19.620;2022-10-31T11:09:36;15.93;85.06
69006;SHT31;56061;51.748;19.620;2022-10-31T11:12:38;15.99;84.84
69006;SHT31;56061;51.748;19.620;2022-10-31T11:15:07;16.04;84.88
69006;SHT31;56061;51.748;19.620;2022-10-31T11:17:51;16.11;84.78
69006;SHT31;56061;51.748;19.620;2022-10-31T11:23:05;16.20;84.33
69006;SHT31;56061;51.748;19.620;2022-10-31T11:25:48;16.22;84.37
69006;SHT31;56061;51.748;19.620;2022-10-31T11:28:17;16.22;84.37
69006;SHT31;56061;51.748;19.620;2022-10-31T11:30:48;16.20;84.19
69006;SHT31;56061;51.748;19.620;2022-10-31T11:33:21;16.22;84.42
69006;SHT31;56061;51.748;19.620;2022-10-31T11:35:55;16.24;84.41
69006;SHT31;56061;51.748;19.620;2022-10-31T11:38:32;16.28;84.31
69006;SHT31;56061;51.748;19.620;2022-10-31T11:41:11;16.32;84.19
69006;SHT31;56061;51.748;19.620;2022-10-31T11:43:46;16.37;84.18
69006;SHT31;56061;51.748;19.620;2022-10-31T11:46:20;16.43;84.06
69006;SHT31;56061;51.748;19.620;2022-10-31T11:49:00;16.46;83.76
69006;SHT31;56061;51.748;19.620;2022-10-31T11:51:29;16.46;83.85
69006;SHT31;56061;51.748;19.620;2022-10-31T11:54:01;16.44;83.67
69006;SHT31;56061;51.748;19.620;2022-10-31T11:56:39;16.42;83.40
69006;SHT31;56061;51.748;19.620;2022-10-31T11:59:18;16.42;83.55
69006;SHT31;56061;51.748;19.620;2022-10-31T12:01:50;16.48;83.73
69006;SHT31;56061;51.748;19.620;2022-10-31T12:04:22;16.52;83.52
69006;SHT31;56061;51.748;19.620;2022-10-31T12:07:10;16.56;83.59
69006;SHT31;56061;51.748;19.620;2022-10-31T12:09:36;16.55;83.44
69006;SHT31;56061;51.748;19.620;2022-10-31T12:18:49;16.52;83.44
69006;SHT31;56061;51.748;19.620;2022-10-31T12:33:45;16.66;83.27
69006;SHT31;56061;51.748;19.620;2022-10-31T12:36:26;16.66;83.22
69006;SHT31;56061;51.748;19.620;2022-10-31T12:39:21;16.66;83.22
69006;SHT31;56061;51.748;19.620;2022-10-31T12:57:47;16.82;83.13
69006;SHT31;56061;51.748;19.620;2022-10-31T13:00:23;16.82;83.09
69006;SHT31;56061;51.748;19.620;2022-10-31T13:05:48;16.83;83.10
69006;SHT31;56061;51.748;19.620;2022-10-31T13:08:30;16.84;83.12
69006;SHT31;56061;51.748;19.620;2022-10-31T13:11:10;16.83;83.18
69006;SHT31;56061;51.748;19.620;2022-10-31T13:16:49;16.84;83.12
69006;SHT31;56061;51.748;19.620;2022-10-31T13:21:53;16.83;83.11
69006;SHT31;56061;51.748;19.620;2022-10-31T13:24:39;16.81;83.05
69006;SHT31;56061;51.748;19.620;2022-10-31T13:27:13;16.81;83.05
69006;SHT31;56061;51.748;19.620;2022-10-31T13:29:55;16.80;83.11
69006;SHT31;56061;51.748;19.620;2022-10-31T13:32:35;16.82;83.09
69006;SHT31;56061;51.748;19.620;2022-10-31T13:35:14;16.82;83.02
69006;SHT31;56061;51.748;19.620;2022-10-31T13:37:56;16.80;82.97
69006;SHT31;56061;51.748;19.620;2022-10-31T13:44:18;16.74;83.12
69006;SHT31;56061;51.748;19.620;2022-10-31T13:46:50;16.73;83.16
69006;SHT31;56061;51.748;19.620;2022-10-31T13:54:44;16.76;83.05
69006;SHT31;56061;51.748;19.620;2022-10-31T13:57:17;16.72;83.04
69006;SHT31;56061;51.748;19.620;2022-10-31T13:59:52;16.69;83.10
69006;SHT31;56061;51.748;19.620;2022-10-31T14:02:34;16.66;83.07
69006;SHT31;56061;51.748;19.620;2022-10-31T14:05:04;16.62;83.05
69006;SHT31;56061;51.748;19.620;2022-10-31T14:08:04;16.56;83.09
69006;SHT31;56061;51.748;19.620;2022-10-31T14:10:48;16.52;83.11
69006;SHT31;56061;51.748;19.620;2022-10-31T14:13:22;16.48;83.06
69006;SHT31;56061;51.748;19.620;2022-10-31T14:15:58;16.43;83.08
69006;SHT31;56061;51.748;19.620;2022-10-31T14:18:31;16.36;83.13
69006;SHT31;56061;51.748;19.620;2022-10-31T14:21:01;16.30;83.10
69006;SHT31;56061;51.748;19.620;2022-10-31T14:24:00;16.22;83.12
69006;SHT31;56061;51.748;19.620;2022-10-31T14:26:31;16.15;83.11
69006;SHT31;56061;51.748;19.620;2022-10-31T14:29:02;16.10;83.05
69006;SHT31;56061;51.748;19.620;2022-10-31T14:31:55;16.04;83.10
69006;SHT31;56061;51.748;19.620;2022-10-31T14:43:19;15.61;83.36
69006;SHT31;56061;51.748;19.620;2022-10-31T14:51:52;15.29;83.14
69006;SHT31;56061;51.748;19.620;2022-10-31T14:54:20;15.19;82.93
69006;SHT31;56061;51.748;19.620;2022-10-31T14:56:58;15.06;82.94
69006;SHT31;56061;51.748;19.620;2022-10-31T14:59:31;14.95;82.79
69006;SHT31;56061;51.748;19.620;2022-10-31T15:02:22;14.84;83.20
69006;SHT31;56061;51.748;19.620;2022-10-31T15:04:54;14.71;83.39
69006;SHT31;56061;51.748;19.620;2022-10-31T15:07:23;14.63;83.15
69006;SHT31;56061;51.748;19.620;2022-10-31T15:09:59;14.52;82.88
69006;SHT31;56061;51.748;19.620;2022-10-31T15:12:33;14.40;83.02
69006;SHT31;56061;51.748;19.620;2022-10-31T15:15:14;14.33;83.83
69006;SHT31;56061;51.748;19.620;2022-10-31T15:17:51;14.23;83.83
69006;SHT31;56061;51.748;19.620;2022-10-31T15:20:22;14.13;84.37
69006;SHT31;56061;51.748;19.620;2022-10-31T15:22:53;14.05;84.69
69006;SHT31;56061;51.748;19.620;2022-10-31T15:25:24;13.94;84.31
69006;SHT31;56061;51.748;19.620;2022-10-31T15:27:57;13.84;84.46
69006;SHT31;56061;51.748;19.620;2022-10-31T15:30:26;13.77;84.59
69006;SHT31;56061;51.748;19.620;2022-10-31T15:32:54;13.69;84.29
69006;SHT31;56061;51.748;19.620;2022-10-31T15:35:28;13.62;84.81
69006;SHT31;56061;51.748;19.620;2022-10-31T15:37:57;13.53;84.66
69006;SHT31;56061;51.748;19.620;2022-10-31T15:40:26;13.45;85.41
69006;SHT31;56061;51.748;19.620;2022-10-31T15:43:01;13.37;85.63
69006;SHT31;56061;51.748;19.620;2022-10-31T15:45:30;13.29;85.33
69006;SHT31;56061;51.748;19.620;2022-10-31T15:50:31;13.20;85.19
69006;SHT31;56061;51.748;19.620;2022-10-31T15:53:13;13.17;84.82
69006;SHT31;56061;51.748;19.620;2022-10-31T15:55:51;13.14;85.05
69006;SHT31;56061;51.748;19.620;2022-10-31T15:58:28;13.10;85.30
69006;SHT31;56061;51.748;19.620;2022-10-31T16:01:18;13.07;85.70
69006;SHT31;56061;51.748;19.620;2022-10-31T16:04:05;13.01;85.91
69006;SHT31;56061;51.748;19.620;2022-10-31T16:06:59;12.93;86.06
69006;SHT31;56061;51.748;19.620;2022-10-31T16:09:49;12.87;86.29
69006;SHT31;56061;51.748;19.620;2022-10-31T16:12:24;12.83;86.43
69006;SHT31;56061;51.748;19.620;2022-10-31T16:15:00;12.78;86.62
69006;SHT31;56061;51.748;19.620;2022-10-31T16:17:29;12.75;86.67
69006;SHT31;56061;51.748;19.620;2022-10-31T16:19:57;12.72;86.76
69006;SHT31;56061;51.748;19.620;2022-10-31T16:22:27;12.66;86.86
69006;SHT31;56061;51.748;19.620;2022-10-31T16:25:04;12.61;86.98
69006;SHT31;56061;51.748;19.620;2022-10-31T16:27:38;12.58;87.15
69006;SHT31;56061;51.748;19.620;2022-10-31T16:33:24;12.56;87.36
69006;SHT31;56061;51.748;19.620;2022-10-31T16:35:59;12.55;87.52
69006;SHT31;56061;51.748;19.620;2022-10-31T16:38:49;12.52;87.66
69006;SHT31;56061;51.748;19.620;2022-10-31T16:41:15;12.49;87.75
69006;SHT31;56061;51.748;19.620;2022-10-31T16:43:41;12.46;87.73
69006;SHT31;56061;51.748;19.620;2022-10-31T16:46:08;12.40;87.82
69006;SHT31;56061;51.748;19.620;2022-10-31T16:48:45;12.38;87.91
69006;SHT31;56061;51.748;19.620;2022-10-31T16:51:12;12.37;87.90
69006;SHT31;56061;51.748;19.620;2022-10-31T16:53:38;12.37;87.88
69006;SHT31;56061;51.748;19.620;2022-10-31T16:56:14;12.36;87.82
69006;SHT31;56061;51.748;19.620;2022-10-31T16:58:44;12.35;87.79
69006;SHT31;56061;51.748;19.620;2022-10-31T17:01:11;12.33;87.82
69006;SHT31;56061;51.748;19.620;2022-10-31T17:03:39;12.32;87.80
69006;SHT31;56061;51.748;19.620;2022-10-31T17:06:08;12.26;87.87
69006;SHT31;56061;51.748;19.620;2022-10-31T17:08:38;12.22;87.90
69006;SHT31;56061;51.748;19.620;2022-10-31T17:11:05;12.17;87.97
69006;SHT31;56061;51.748;19.620;2022-10-31T17:13:34;12.12;88.02
69006;SHT31;56061;51.748;19.620;2022-10-31T17:16:01;12.08;88.08
69006;SHT31;56061;51.748;19.620;2022-10-31T17:18:29;12.07;88.09
69006;SHT31;56061;51.748;19.620;2022-10-31T17:20:56;12.05;88.12
69006;SHT31;56061;51.748;19.620;2022-10-31T17:23:26;12.03;88.15
69006;SHT31;56061;51.748;19.620;2022-10-31T17:25:54;12.02;88.13
69006;SHT31;56061;51.748;19.620;2022-10-31T17:28:21;11.98;88.20
69006;SHT31;56061;51.748;19.620;2022-10-31T17:30:48;11.94;88.15
69006;SHT31;56061;51.748;19.620;2022-10-31T17:33:15;11.88;88.18
69006;SHT31;56061;51.748;19.620;2022-10-31T17:35:42;11.83;88.21
69006;SHT31;56061;51.748;19.620;2022-10-31T17:38:10;11.81;88.20
69006;SHT31;56061;51.748;19.620;2022-10-31T17:40:38;11.78;88.20
69006;SHT31;56061;51.748;19.620;2022-10-31T17:43:07;11.75;88.22
69006;SHT31;56061;51.748;19.620;2022-10-31T17:45:39;11.73;88.20
69006;SHT31;56061;51.748;19.620;2022-10-31T17:48:10;11.70;88.20
69006;SHT31;56061;51.748;19.620;2022-10-31T17:50:38;11.63;88.22
69006;SHT31;56061;51.748;19.620;2022-10-31T17:53:04;11.59;88.31
69006;SHT31;56061;51.748;19.620;2022-10-31T17:55:31;11.53;88.33
69006;SHT31;56061;51.748;19.620;2022-10-31T17:58:03;11.49;88.42
69006;SHT31;56061;51.748;19.620;2022-10-31T18:00:30;11.47;88.45
69006;SHT31;56061;51.748;19.620;2022-10-31T18:02:57;11.44;88.40
69006;SHT31;56061;51.748;19.620;2022-10-31T18:05:24;11.43;88.36
69006;SHT31;56061;51.748;19.620;2022-10-31T18:07:50;11.42;88.35